Time;durP1;ratioP1;P1;durP2;ratioP2;P2;SDS_P1;SDS_P2;PMS_P1;PMS_P2;Temp;Humidity;BMP_temperature;BMP_pressure;BME280_temperature;BME280_humidity;BME280_pressure;Samples;Min_cycle;Max_cycle;Signal;HPM_P1;HPM_P2
2022/11/07 00:01:16;;;;;;;25.77;16.73;;;7.00;99.90;;;;;;4989060;28;20218;-69
2022/11/07 00:03:43;;;;;;;27.33;16.57;;;7.10;99.90;;;;;;4987981;28;20203;-68
2022/11/07 00:06:10;;;;;;;27.43;16.63;;;7.10;99.90;;;;;;4986601;28;20218;-69
2022/11/07 00:08:37;;;;;;;28.10;16.50;;;7.10;99.90;;;;;;4988142;28;20204;-69
2022/11/07 00:11:05;;;;;;;25.50;15.47;;;7.10;99.90;;;;;;4983745;28;20208;-71
2022/11/07 00:13:33;;;;;;;21.43;14.70;;;7.10;99.90;;;;;;4987131;28;20212;-68
2022/11/07 00:16:00;;;;;;;24.73;15.20;;;7.10;99.90;;;;;;4986350;28;20211;-69
2022/11/07 00:18:27;;;;;;;23.93;15.43;;;7.20;99.90;;;;;;4986941;28;20290;-68
2022/11/07 00:20:54;;;;;;;26.33;15.17;;;7.20;99.90;;;;;;4981600;28;20669;-69
2022/11/07 00:23:21;;;;;;;27.10;14.57;;;7.10;99.90;;;;;;4988547;28;20242;-68
2022/11/07 00:25:48;;;;;;;21.30;13.90;;;7.20;99.90;;;;;;4987820;28;20731;-69
2022/11/07 00:28:16;;;;;;;24.07;15.17;;;7.20;99.90;;;;;;4986532;28;20215;-68
2022/11/07 00:30:42;;;;;;;23.40;14.00;;;7.20;99.90;;;;;;4985338;28;20219;-68
2022/11/07 00:33:09;;;;;;;21.90;14.50;;;7.20;99.90;;;;;;4989093;28;20587;-68
2022/11/07 00:35:40;;;;;;;21.27;14.13;;;7.20;99.90;;;;;;4987929;28;20200;-69
2022/11/07 00:38:07;;;;;;;20.73;13.73;;;7.10;99.90;;;;;;4988056;28;20203;-68
2022/11/07 00:40:34;;;;;;;18.33;12.57;;;7.20;99.90;;;;;;4980673;28;20363;-68
2022/11/07 00:43:00;;;;;;;18.57;12.97;;;7.20;99.90;;;;;;4986202;28;20703;-69
2022/11/07 00:45:28;;;;;;;20.43;12.37;;;7.20;99.90;;;;;;4986791;28;20227;-70
2022/11/07 00:47:55;;;;;;;18.20;13.30;;;7.30;99.90;;;;;;4986800;28;20232;-68
2022/11/07 00:50:22;;;;;;;18.43;12.93;;;7.30;99.90;;;;;;4990246;28;20208;-68
2022/11/07 00:52:48;;;;;;;20.47;12.53;;;7.30;99.90;;;;;;4992872;28;20219;-68
2022/11/07 00:55:15;;;;;;;19.50;12.20;;;7.40;99.90;;;;;;4993282;28;20649;-68
2022/11/07 00:57:42;;;;;;;17.77;13.30;;;7.40;99.90;;;;;;4989938;28;20200;-69
2022/11/07 01:00:10;;;;;;;19.57;12.53;;;7.40;99.90;;;;;;4990903;28;20218;-68
2022/11/07 01:02:38;;;;;;;19.37;12.13;;;7.40;99.90;;;;;;4991040;28;20228;-68
2022/11/07 01:05:11;;;;;;;20.83;11.83;;;7.40;99.90;;;;;;4992441;28;20234;-67
2022/11/07 01:07:39;;;;;;;20.80;12.47;;;7.50;99.90;;;;;;4989521;28;20196;-68
2022/11/07 01:10:07;;;;;;;20.60;13.07;;;7.50;99.90;;;;;;4991526;28;20208;-69
2022/11/07 01:12:35;;;;;;;19.43;13.57;;;7.50;99.90;;;;;;4980818;28;20220;-68
2022/11/07 01:15:01;;;;;;;20.70;13.83;;;7.50;99.90;;;;;;4990787;28;20238;-67
2022/11/07 01:17:28;;;;;;;20.90;14.23;;;7.40;99.90;;;;;;4991130;28;20569;-68
2022/11/07 01:19:56;;;;;;;23.33;14.60;;;7.30;99.90;;;;;;4987524;28;20208;-69
2022/11/07 01:22:23;;;;;;;21.10;14.47;;;7.30;99.90;;;;;;4992810;28;20246;-68
2022/11/07 01:24:50;;;;;;;23.40;15.60;;;7.20;99.90;;;;;;4990635;28;20741;-68
2022/11/07 01:27:16;;;;;;;24.90;16.53;;;7.20;99.90;;;;;;4990335;28;20215;-68
2022/11/07 01:29:43;;;;;;;25.07;17.30;;;7.20;99.90;;;;;;4989567;28;20208;-68
2022/11/07 01:32:10;;;;;;;23.90;16.53;;;7.20;99.90;;;;;;4991157;28;20223;-69
2022/11/07 01:34:37;;;;;;;27.17;16.97;;;7.10;99.90;;;;;;4990806;28;20196;-70
2022/11/07 01:37:05;;;;;;;25.33;16.83;;;7.10;99.90;;;;;;4985321;28;20208;-68
2022/11/07 01:39:32;;;;;;;29.03;17.60;;;7.10;99.90;;;;;;4986990;28;20247;-67
2022/11/07 01:41:58;;;;;;;26.20;16.70;;;7.10;99.90;;;;;;4992031;28;20216;-68
2022/11/07 01:44:52;;;;;;;25.63;16.63;;;7.10;99.90;;;;;;4991528;28;20595;-68
2022/11/07 01:47:19;;;;;;;27.53;17.67;;;7.10;99.90;;;;;;4991272;28;20200;-68
2022/11/07 01:49:46;;;;;;;28.10;18.33;;;7.10;99.90;;;;;;4991826;28;20218;-68
2022/11/07 01:52:19;;;;;;;30.37;18.77;;;7.10;99.90;;;;;;4986983;28;20236;-68
2022/11/07 01:54:51;;;;;;;27.40;18.53;;;7.80;99.90;;;;;;4981391;28;20204;-69
2022/11/07 01:57:23;;;;;;;27.97;18.73;;;7.10;99.90;;;;;;4990788;28;20211;-68
2022/11/07 01:59:54;;;;;;;31.50;18.57;;;7.10;99.90;;;;;;4989373;28;20212;-69
2022/11/07 02:02:22;;;;;;;27.17;18.33;;;7.10;99.90;;;;;;4989395;28;20223;-68
2022/11/07 02:04:49;;;;;;;34.23;20.90;;;7.10;99.90;;;;;;4990934;28;20439;-68
2022/11/07 02:07:19;;;;;;;28.37;19.57;;;7.10;99.90;;;;;;4986768;28;20204;-68
2022/11/07 02:09:46;;;;;;;27.07;19.83;;;7.10;99.90;;;;;;4988400;28;20212;-69
2022/11/07 02:12:15;;;;;;;32.87;20.67;;;7.10;99.90;;;;;;4989009;28;20214;-68
2022/11/07 02:14:42;;;;;;;31.43;20.03;;;7.10;99.90;;;;;;4990837;28;20221;-69
2022/11/07 02:17:09;;;;;;;30.27;19.50;;;7.10;99.90;;;;;;4991287;28;20208;-67
2022/11/07 02:19:40;;;;;;;34.53;21.47;;;7.10;99.90;;;;;;4989590;28;20208;-68
2022/11/07 02:22:17;;;;;;;30.63;20.40;;;7.10;99.90;;;;;;4990817;28;20211;-69
2022/11/07 02:24:48;;;;;;;31.50;20.60;;;7.10;99.90;;;;;;4990732;28;20230;-69
2022/11/07 02:27:18;;;;;;;31.47;21.47;;;7.10;99.90;;;;;;4988005;28;20200;-70
2022/11/07 02:29:49;;;;;;;31.90;20.73;;;7.10;99.90;;;;;;4990638;28;20211;-68
2022/11/07 02:32:16;;;;;;;29.30;19.40;;;7.10;99.90;;;;;;4989972;28;20518;-68
2022/11/07 02:34:42;;;;;;;35.03;20.30;;;7.10;99.90;;;;;;4990317;28;20200;-68
2022/11/07 02:37:18;;;;;;;32.37;20.33;;;7.10;99.90;;;;;;4989801;28;20211;-67
2022/11/07 02:39:46;;;;;;;29.27;19.33;;;7.10;99.90;;;;;;4989960;28;20329;-67
2022/11/07 02:42:13;;;;;;;30.97;19.27;;;7.10;99.90;;;;;;4987655;28;20518;-68
2022/11/07 02:44:40;;;;;;;34.23;19.70;;;7.00;99.90;;;;;;4982743;28;20652;-67
2022/11/07 02:47:07;;;;;;;28.20;18.73;;;7.00;99.90;;;;;;4990175;28;20648;-68
2022/11/07 02:49:33;;;;;;;27.83;18.53;;;7.10;99.90;;;;;;4988569;28;20211;-67
2022/11/07 02:52:00;;;;;;;27.07;18.40;;;7.10;99.90;;;;;;4986385;28;20205;-69
2022/11/07 02:54:27;;;;;;;25.33;17.30;;;7.10;99.90;;;;;;4988975;28;20227;-67
2022/11/07 02:56:55;;;;;;;27.87;17.13;;;7.10;99.90;;;;;;4989583;28;20234;-67
2022/11/07 02:59:22;;;;;;;25.03;17.27;;;7.10;99.90;;;;;;4988222;28;20692;-67
2022/11/07 03:01:48;;;;;;;25.37;17.20;;;7.20;99.90;;;;;;4990775;28;20200;-68
2022/11/07 03:04:15;;;;;;;25.77;17.03;;;7.20;99.90;;;;;;4989194;28;20215;-68
2022/11/07 03:06:42;;;;;;;27.60;17.33;;;7.20;99.90;;;;;;4989433;28;20239;-69
2022/11/07 03:09:08;;;;;;;25.30;17.43;;;7.30;99.90;;;;;;4988853;28;20215;-67
2022/11/07 03:11:35;;;;;;;25.73;16.43;;;7.30;99.90;;;;;;4988524;28;20218;-68
2022/11/07 03:14:03;;;;;;;25.13;17.27;;;7.30;99.90;;;;;;4987231;28;21448;-67
2022/11/07 03:16:30;;;;;;;25.97;17.30;;;7.30;99.90;;;;;;4989259;28;20200;-68
2022/11/07 03:18:57;;;;;;;25.73;17.07;;;7.30;99.90;;;;;;4989872;28;20207;-69
2022/11/07 03:21:24;;;;;;;27.17;17.33;;;7.40;99.90;;;;;;4987538;28;20204;-68
2022/11/07 03:23:50;;;;;;;29.27;18.50;;;7.40;99.90;;;;;;4988730;28;20214;-68
2022/11/07 03:26:17;;;;;;;28.43;17.30;;;7.30;99.90;;;;;;4987135;28;20227;-68
2022/11/07 03:28:44;;;;;;;29.00;18.23;;;7.40;99.90;;;;;;4976999;28;20324;-66
2022/11/07 03:31:12;;;;;;;28.80;18.93;;;7.40;99.90;;;;;;4989221;28;20576;-69
2022/11/07 03:33:38;;;;;;;27.23;18.77;;;7.40;99.90;;;;;;4988623;28;20212;-70
2022/11/07 03:36:06;;;;;;;28.10;18.57;;;7.40;99.90;;;;;;4990384;28;20215;-68
2022/11/07 03:38:33;;;;;;;33.30;19.23;;;7.40;99.90;;;;;;4988472;28;20683;-68
2022/11/07 03:40:59;;;;;;;31.50;20.27;;;7.50;99.90;;;;;;4987047;28;20685;-68
2022/11/07 03:43:26;;;;;;;34.27;21.50;;;7.50;99.90;;;;;;4989328;28;20235;-68
2022/11/07 03:45:53;;;;;;;26.80;18.20;;;7.40;99.90;;;;;;4989823;28;20227;-67
2022/11/07 03:48:21;;;;;;;32.07;21.77;;;7.40;99.90;;;;;;4986574;28;20207;-68
2022/11/07 03:50:48;;;;;;;29.83;19.70;;;7.40;99.90;;;;;;4989546;28;20222;-67
2022/11/07 03:53:14;;;;;;;35.00;20.17;;;7.40;99.90;;;;;;4986359;28;20215;-68
2022/11/07 03:55:42;;;;;;;36.40;21.73;;;7.40;99.90;;;;;;4986403;28;20212;-67
2022/11/07 03:58:09;;;;;;;32.53;19.83;;;7.40;99.90;;;;;;4987505;28;20660;-69
2022/11/07 04:00:36;;;;;;;37.33;21.50;;;7.40;99.90;;;;;;4989497;28;20648;-67
2022/11/07 04:03:03;;;;;;;35.57;21.73;;;7.30;99.90;;;;;;4988385;28;20219;-68
2022/11/07 04:05:31;;;;;;;38.13;22.13;;;7.30;99.90;;;;;;4985220;28;20226;-68
2022/11/07 04:07:58;;;;;;;34.80;21.83;;;7.30;99.90;;;;;;4988452;28;20215;-68
2022/11/07 04:10:24;;;;;;;34.20;20.20;;;7.30;99.90;;;;;;4987514;28;20215;-68
2022/11/07 04:18:21;;;;;;;37.03;21.10;;;7.40;99.90;;;;;;4988010;28;20295;-67
2022/11/07 04:20:49;;;;;;;38.73;21.70;;;7.40;99.90;;;;;;4990085;28;20684;-68
2022/11/07 04:23:16;;;;;;;40.57;22.13;;;7.40;99.90;;;;;;4985293;28;20223;-68
2022/11/07 04:28:27;;;;;;;39.03;21.93;;;7.40;99.90;;;;;;4990435;28;20702;-70
2022/11/07 04:30:54;;;;;;;37.63;22.33;;;7.40;99.90;;;;;;4993028;28;20204;-69
2022/11/07 04:33:21;;;;;;;40.23;22.97;;;7.40;99.90;;;;;;4993613;28;20220;-69
2022/11/07 04:35:49;;;;;;;33.53;20.33;;;7.40;99.90;;;;;;4993590;28;20230;-68
2022/11/07 04:38:16;;;;;;;42.60;23.30;;;7.40;99.90;;;;;;4992675;28;20212;-69
2022/11/07 04:40:42;;;;;;;38.97;22.30;;;7.50;99.90;;;;;;4990906;28;20258;-67
2022/11/07 04:43:09;;;;;;;39.47;22.33;;;7.40;99.90;;;;;;4991891;28;20610;-67
2022/11/07 04:45:39;;;;;;;39.57;21.80;;;7.50;99.90;;;;;;4992533;28;20228;-69
2022/11/07 04:48:07;;;;;;;40.47;22.30;;;7.50;99.90;;;;;;4991389;28;20200;-68
2022/11/07 04:50:34;;;;;;;40.90;22.27;;;7.50;99.90;;;;;;4992512;28;20319;-68
2022/11/07 04:53:02;;;;;;;38.60;22.33;;;7.50;99.90;;;;;;4993490;28;20208;-68
2022/11/07 04:55:30;;;;;;;40.70;22.57;;;7.50;99.90;;;;;;4991332;28;20211;-68
2022/11/07 04:57:57;;;;;;;36.40;22.53;;;7.50;99.90;;;;;;4988234;28;20287;-69
2022/11/07 05:00:24;;;;;;;37.50;22.37;;;7.60;99.90;;;;;;4991791;28;20212;-68
2022/11/07 05:02:51;;;;;;;41.50;23.27;;;7.60;99.90;;;;;;4991277;28;20219;-67
2022/11/07 05:05:18;;;;;;;38.10;23.70;;;7.70;99.90;;;;;;4992457;28;20208;-67
2022/11/07 05:07:45;;;;;;;37.87;22.90;;;7.70;99.90;;;;;;4990486;28;20216;-67
2022/11/07 05:10:18;;;;;;;36.77;23.57;;;7.70;99.90;;;;;;4992015;28;20208;-67
2022/11/07 05:12:45;;;;;;;36.73;21.60;;;7.70;99.90;;;;;;4992396;28;20622;-68
2022/11/07 05:15:13;;;;;;;38.97;23.23;;;7.70;99.90;;;;;;4984864;28;20656;-68
2022/11/07 05:17:39;;;;;;;44.57;22.53;;;7.70;99.90;;;;;;4991059;28;20200;-68
2022/11/07 05:20:08;;;;;;;37.07;21.73;;;7.80;99.90;;;;;;4990776;28;20583;-68
2022/11/07 05:25:20;;;;;;;39.27;22.27;;;7.80;99.90;;;;;;4992010;28;20203;-69
2022/11/07 05:27:47;;;;;;;35.13;21.53;;;7.80;99.90;;;;;;4990910;28;20215;-68
2022/11/07 05:30:13;;;;;;;37.00;22.47;;;7.90;99.90;;;;;;4992189;28;20616;-68
2022/11/07 05:32:40;;;;;;;35.77;21.93;;;7.90;99.90;;;;;;4990547;28;20208;-67
2022/11/07 05:35:08;;;;;;;34.67;21.33;;;8.00;99.90;;;;;;4991679;28;20661;-67
2022/11/07 05:37:34;;;;;;;37.57;21.77;;;8.00;99.90;;;;;;4989943;28;20227;-67
2022/11/07 05:40:01;;;;;;;34.87;21.70;;;8.00;99.90;;;;;;4989620;28;20266;-68
2022/11/07 05:42:29;;;;;;;31.77;20.50;;;8.00;99.90;;;;;;4990848;28;20245;-69
2022/11/07 05:44:56;;;;;;;38.33;21.47;;;8.00;99.90;;;;;;4988839;28;20204;-68
2022/11/07 05:47:23;;;;;;;37.33;20.97;;;8.00;99.90;;;;;;4987349;28;20251;-68
2022/11/07 05:49:49;;;;;;;39.70;21.53;;;8.10;99.90;;;;;;4984241;28;20212;-67
2022/11/07 05:52:16;;;;;;;35.17;21.50;;;8.10;99.90;;;;;;4989655;28;20904;-66
2022/11/07 05:54:43;;;;;;;34.60;21.90;;;8.10;99.90;;;;;;4992542;28;20735;-69
2022/11/07 05:57:09;;;;;;;36.60;21.77;;;8.10;99.90;;;;;;4991073;28;20204;-69
2022/11/07 05:59:38;;;;;;;33.40;20.60;;;8.10;99.90;;;;;;4985162;28;20541;-68
2022/11/07 06:02:04;;;;;;;35.93;19.77;;;8.20;99.90;;;;;;4991409;28;20675;-67
2022/11/07 06:04:31;;;;;;;32.47;20.20;;;8.20;99.90;;;;;;4987602;28;20208;-68
2022/11/07 06:06:58;;;;;;;37.13;20.20;;;8.30;99.90;;;;;;4988371;28;20228;-67
2022/11/07 06:09:24;;;;;;;32.50;20.50;;;8.30;99.90;;;;;;4992122;28;20664;-66
2022/11/07 06:11:51;;;;;;;29.33;19.30;;;8.30;99.90;;;;;;4984741;28;20218;-67
2022/11/07 06:14:18;;;;;;;32.37;19.97;;;8.40;99.90;;;;;;4992253;28;20219;-69
2022/11/07 06:16:46;;;;;;;30.30;19.80;;;8.50;99.90;;;;;;4984179;28;20208;-68
2022/11/07 06:19:13;;;;;;;37.10;24.52;;;8.40;99.90;;;;;;4988360;28;20475;-68
2022/11/07 06:21:40;;;;;;;32.50;20.23;;;8.50;99.90;;;;;;4989802;28;20208;-71
2022/11/07 06:24:07;;;;;;;32.10;19.73;;;8.60;99.90;;;;;;4988154;28;20212;-71
2022/11/07 06:26:34;;;;;;;34.05;21.10;;;8.60;99.90;;;;;;4986063;28;21115;-72
2022/11/07 06:29:01;;;;;;;34.03;24.88;;;8.70;99.90;;;;;;4988054;28;20952;-68
2022/11/07 06:31:28;;;;;;;29.63;19.50;;;8.70;99.90;;;;;;4985240;28;20554;-71
2022/11/07 06:33:56;;;;;;;30.17;18.87;;;8.80;99.90;;;;;;4981721;28;20207;-69
2022/11/07 06:36:22;;;;;;;31.17;18.73;;;8.80;99.90;;;;;;4986582;28;20227;-68
2022/11/07 06:38:52;;;;;;;31.75;20.23;;;8.90;99.90;;;;;;4984064;28;20462;-69
2022/11/07 06:41:19;;;;;;;30.07;18.63;;;8.90;99.90;;;;;;4983087;28;20755;-69
2022/11/07 06:43:45;;;;;;;28.13;17.80;;;8.90;99.90;;;;;;4989563;28;20239;-72
2022/11/07 06:46:16;;;;;;;26.47;16.93;;;9.00;99.90;;;;;;4989723;28;20227;-74
2022/11/07 06:48:42;;;;;;;30.87;18.43;;;9.00;99.90;;;;;;4989100;28;20471;-74
2022/11/07 06:51:11;;;;;;;31.43;18.37;;;9.10;99.90;;;;;;4992082;28;20208;-72
2022/11/07 06:53:39;;;;;;;29.87;17.47;;;9.10;99.90;;;;;;4989546;28;20208;-74
2022/11/07 06:56:08;;;;;;;26.33;17.50;;;9.10;99.90;;;;;;4988803;28;20645;-74
2022/11/07 06:58:35;;;;;;;26.97;16.83;;;9.10;99.90;;;;;;4992476;28;20200;-77
2022/11/07 07:01:03;;;;;;;29.93;16.97;;;9.10;99.90;;;;;;4990814;28;20220;-74
2022/11/07 07:03:30;;;;;;;24.23;16.67;;;9.20;99.90;;;;;;4993265;28;20200;-76
2022/11/07 07:06:01;;;;;;;26.33;16.77;;;9.20;99.90;;;;;;4991063;28;20630;-76
2022/11/07 07:08:30;;;;;;;28.03;18.20;;;9.20;99.90;;;;;;4989393;28;20699;-74
2022/11/07 07:10:57;;;;;;;26.73;16.23;;;9.20;99.90;;;;;;4980220;28;20208;-71
2022/11/07 07:13:23;;;;;;;26.37;16.17;;;9.20;99.90;;;;;;4991875;28;20204;-74
2022/11/07 07:15:54;;;;;;;24.47;16.07;;;9.30;99.90;;;;;;4990125;28;20580;-70
2022/11/07 07:18:21;;;;;;;25.87;16.03;;;9.30;99.90;;;;;;4988328;28;20297;-72
2022/11/07 07:20:48;;;;;;;31.27;16.90;;;9.40;99.90;;;;;;4989454;28;20208;-72
2022/11/07 07:23:16;;;;;;;27.07;16.53;;;9.40;99.90;;;;;;4975117;28;20204;-73
2022/11/07 07:25:44;;;;;;;25.70;16.67;;;9.40;99.90;;;;;;4981095;28;20643;-70
2022/11/07 07:28:11;;;;;;;29.10;16.97;;;9.50;99.90;;;;;;4985563;28;20219;-74
2022/11/07 07:30:38;;;;;;;22.03;15.33;;;9.50;99.90;;;;;;4989118;28;20614;-73
2022/11/07 07:33:05;;;;;;;25.43;15.70;;;9.60;99.90;;;;;;4986235;28;20208;-72
2022/11/07 07:35:31;;;;;;;23.77;16.03;;;9.60;99.90;;;;;;4985279;28;20681;-70
2022/11/07 07:37:58;;;;;;;23.67;15.37;;;9.60;99.90;;;;;;4986143;28;20212;-72
2022/11/07 07:40:25;;;;;;;21.57;15.63;;;9.60;99.90;;;;;;4985062;28;20299;-71
2022/11/07 07:42:53;;;;;;;30.37;20.50;;;9.70;99.90;;;;;;4967742;28;20468;-72
2022/11/07 07:45:20;;;;;;;26.43;17.17;;;9.70;99.90;;;;;;4968420;28;20216;-72
2022/11/07 07:47:47;;;;;;;48.30;21.53;;;9.60;99.90;;;;;;4967159;28;20237;-72
2022/11/07 07:50:14;;;;;;;27.37;17.63;;;9.70;99.90;;;;;;4970490;28;20220;-72
2022/11/07 07:52:41;;;;;;;24.07;16.53;;;9.70;99.90;;;;;;4964594;28;20669;-73
2022/11/07 07:55:10;;;;;;;25.77;16.83;;;9.70;99.90;;;;;;4967514;28;20205;-74
2022/11/07 08:00:14;;;;;;;25.00;15.93;;;9.80;99.90;;;;;;5379071;23;20327;-73
2022/11/07 08:02:42;;;;;;;22.80;15.83;;;9.80;99.90;;;;;;4954446;28;20241;-74
2022/11/07 08:05:10;;;;;;;24.20;15.47;;;9.80;99.90;;;;;;4954919;28;20217;-71
2022/11/07 08:07:45;;;;;;;22.90;15.57;;;9.80;99.90;;;;;;4957519;28;20232;-72
2022/11/07 08:10:12;;;;;;;27.20;16.67;;;9.80;99.90;;;;;;4961653;28;20208;-72
2022/11/07 08:12:43;;;;;;;23.80;15.73;;;9.90;99.90;;;;;;4961730;28;20224;-71
2022/11/07 08:15:12;;;;;;;24.87;15.47;;;9.90;99.90;;;;;;4951879;28;20235;-72
2022/11/07 08:17:39;;;;;;;29.23;17.10;;;9.90;99.90;;;;;;4954581;28;20229;-71
2022/11/07 08:20:08;;;;;;;19.00;13.90;;;9.90;99.90;;;;;;4955927;28;20211;-70
2022/11/07 08:22:35;;;;;;;21.33;14.40;;;10.00;99.90;;;;;;4962125;28;20256;-72
2022/11/07 08:25:02;;;;;;;21.43;14.80;;;9.90;99.90;;;;;;4952744;28;20668;-70
2022/11/07 08:27:29;;;;;;;24.40;14.67;;;10.00;99.90;;;;;;4962052;28;20576;-73
2022/11/07 08:30:27;;;;;;;25.27;15.27;;;10.00;99.90;;;;;;4953023;28;20397;-72
2022/11/07 08:32:55;;;;;;;21.13;14.30;;;10.10;99.90;;;;;;4947171;29;20201;-70
2022/11/07 08:35:22;;;;;;;23.40;14.73;;;10.10;99.90;;;;;;4957367;28;20212;-71
2022/11/07 08:37:48;;;;;;;21.93;14.90;;;10.10;99.90;;;;;;4956422;28;20217;-72
2022/11/07 08:40:15;;;;;;;22.50;15.10;;;10.10;99.90;;;;;;4957983;28;20207;-71
2022/11/07 08:42:42;;;;;;;18.87;13.93;;;10.30;99.90;;;;;;4944046;28;20213;-72
2022/11/07 08:45:10;;;;;;;19.90;13.43;;;10.40;99.90;;;;;;4961856;28;20213;-72
2022/11/07 08:47:38;;;;;;;21.13;14.03;;;10.70;99.90;;;;;;4953255;29;20229;-73
2022/11/07 08:50:05;;;;;;;20.50;13.17;;;11.20;99.90;;;;;;4952640;28;20202;-72
2022/11/07 08:52:33;;;;;;;19.03;13.43;;;11.60;99.90;;;;;;4952333;28;20205;-71
2022/11/07 08:55:00;;;;;;;21.70;14.27;;;11.80;99.90;;;;;;4952447;28;20213;-73
2022/11/07 08:57:27;;;;;;;19.67;11.97;;;11.90;99.90;;;;;;4954550;28;20213;-73
2022/11/07 08:59:54;;;;;;;17.30;12.13;;;12.00;99.90;;;;;;4952577;28;20247;-72
2022/11/07 09:02:21;;;;;;;18.87;13.13;;;12.10;99.90;;;;;;4949835;28;20649;-71
2022/11/07 09:04:49;;;;;;;19.90;13.53;;;12.20;99.90;;;;;;4951608;28;20218;-72
2022/11/07 09:07:16;;;;;;;18.47;12.70;;;12.30;99.90;;;;;;4949846;28;20556;-74
2022/11/07 09:09:44;;;;;;;16.70;11.90;;;12.30;99.90;;;;;;4952121;28;20677;-75
2022/11/07 09:12:10;;;;;;;20.40;13.67;;;12.50;99.90;;;;;;4954296;28;20224;-74
2022/11/07 09:14:37;;;;;;;17.33;12.90;;;12.70;99.90;;;;;;4955884;28;20209;-72
2022/11/07 09:17:04;;;;;;;21.13;13.37;;;13.40;99.90;;;;;;4956500;28;20573;-73
2022/11/07 09:19:31;;;;;;;17.47;12.50;;;14.80;99.90;;;;;;4955074;28;20217;-72
2022/11/07 09:21:59;;;;;;;18.10;12.17;;;16.50;99.90;;;;;;4956715;28;20219;-72
2022/11/07 09:24:26;;;;;;;19.23;12.97;;;17.80;99.90;;;;;;4954982;28;20217;-73
2022/11/07 09:26:53;;;;;;;14.27;11.47;;;18.30;99.90;;;;;;4953074;28;20229;-73
2022/11/07 09:29:20;;;;;;;15.85;11.27;;;19.70;99.90;;;;;;4953931;28;20205;-72
2022/11/07 09:31:47;;;;;;;15.55;11.75;;;20.20;99.90;;;;;;4954905;28;20603;-74
2022/11/07 09:34:14;;;;;;;12.85;11.23;;;20.10;99.90;;;;;;4954528;28;20202;-72
2022/11/07 09:36:40;;;;;;;14.35;11.40;;;19.70;99.90;;;;;;4954309;28;20666;-73
2022/11/07 09:39:08;;;;;;;13.85;11.23;;;19.00;99.90;;;;;;4952720;28;20220;-72
2022/11/07 09:41:49;;;;;;;14.75;12.20;;;18.30;99.90;;;;;;4955118;28;20547;-72
2022/11/07 09:44:34;;;;;;;14.35;11.52;;;17.50;99.90;;;;;;4954734;28;20219;-72
2022/11/07 09:47:07;;;;;;;15.30;11.32;;;16.80;99.90;;;;;;4954785;28;20249;-72
2022/11/07 09:49:37;;;;;;;14.63;11.50;;;16.10;99.90;;;;;;4953141;28;20554;-72
2022/11/07 09:52:14;;;;;;;17.50;11.38;;;15.60;99.90;;;;;;4943909;28;20569;-72
2022/11/07 09:54:45;;;;;;;15.90;11.52;;;15.10;99.90;;;;;;4954081;28;20744;-73
2022/11/07 09:57:16;;;;;;;18.40;12.70;;;14.70;99.90;;;;;;4952239;28;20205;-72
2022/11/07 09:59:48;;;;;;;16.60;11.53;;;14.40;99.90;;;;;;4954401;28;20245;-73
2022/11/07 10:02:17;;;;;;;14.87;11.10;;;14.10;99.90;;;;;;4955000;28;20212;-72
2022/11/07 10:04:45;;;;;;;14.03;10.73;;;13.80;99.90;;;;;;4955169;28;20214;-74
2022/11/07 10:07:23;;;;;;;15.97;11.30;;;13.60;99.90;;;;;;4952446;28;20229;-74
2022/11/07 10:10:01;;;;;;;14.77;10.63;;;13.50;99.90;;;;;;4949843;28;20661;-73
2022/11/07 10:12:41;;;;;;;18.60;11.47;;;13.30;99.90;;;;;;4946964;28;20201;-72
2022/11/07 10:15:21;;;;;;;15.57;11.77;;;13.30;99.90;;;;;;4948548;28;20281;-73
2022/11/07 10:17:54;;;;;;;16.80;11.10;;;13.30;99.90;;;;;;4953381;28;20288;-75
2022/11/07 10:20:34;;;;;;;17.50;11.20;;;13.40;99.90;;;;;;4955209;28;20240;-72
2022/11/07 10:23:14;;;;;;;14.30;10.03;;;13.50;99.90;;;;;;4954947;28;20212;-73
2022/11/07 10:25:47;;;;;;;13.10;9.97;;;13.60;99.90;;;;;;4953415;28;20205;-73
2022/11/07 10:28:16;;;;;;;12.60;10.37;;;13.60;99.90;;;;;;4952160;28;20575;-74
2022/11/07 10:30:47;;;;;;;14.60;10.67;;;13.60;99.90;;;;;;4956597;28;20311;-72
2022/11/07 10:33:27;;;;;;;15.00;9.73;;;13.60;99.90;;;;;;4954133;29;20205;-74
2022/11/07 10:35:58;;;;;;;16.27;9.87;;;13.50;99.90;;;;;;4954890;28;20209;-74
2022/11/07 10:38:27;;;;;;;11.90;9.23;;;13.50;99.90;;;;;;4953162;28;20197;-73
2022/11/07 10:40:56;;;;;;;11.13;9.10;;;13.40;99.90;;;;;;4951392;28;20210;-73
2022/11/07 10:43:31;;;;;;;13.43;8.47;;;13.30;99.90;;;;;;4953864;28;20201;-73
2022/11/07 10:45:59;;;;;;;16.87;11.37;;;13.20;99.90;;;;;;4950825;28;20224;-71
2022/11/07 10:48:28;;;;;;;12.10;9.23;;;13.10;99.90;;;;;;4952036;28;20613;-74
2022/11/07 10:50:56;;;;;;;14.83;8.70;;;13.10;99.90;;;;;;4955304;28;20213;-71
2022/11/07 10:53:25;;;;;;;10.17;7.60;;;13.10;99.90;;;;;;4952705;28;20211;-71
2022/11/07 10:55:54;;;;;;;11.63;8.63;;;13.10;99.90;;;;;;4953603;28;20216;-74
2022/11/07 10:58:24;;;;;;;12.50;7.93;;;13.10;99.90;;;;;;4953550;28;20205;-73
2022/11/07 11:01:00;;;;;;;13.87;8.47;;;13.20;99.90;;;;;;4952872;28;20240;-73
2022/11/07 11:03:31;;;;;;;12.83;8.57;;;13.30;99.90;;;;;;4951245;28;20205;-73
2022/11/07 11:06:09;;;;;;;11.63;8.20;;;13.70;99.90;;;;;;4949945;28;20207;-73
2022/11/07 11:08:37;;;;;;;13.27;8.40;;;14.20;99.90;;;;;;4950593;29;20225;-72
2022/11/07 11:11:15;;;;;;;15.20;8.53;;;14.60;99.90;;;;;;4943552;29;20974;-73
2022/11/07 11:13:43;;;;;;;12.03;7.77;;;15.20;99.90;;;;;;4950314;28;20205;-73
2022/11/07 11:16:24;;;;;;;10.70;8.20;;;15.70;99.90;;;;;;4951176;28;20213;-72
2022/11/07 11:18:53;;;;;;;13.33;8.57;;;15.90;99.90;;;;;;4947950;29;20212;-73
2022/11/07 11:21:20;;;;;;;11.13;8.07;;;15.80;99.90;;;;;;4953134;28;20201;-74
2022/11/07 11:23:48;;;;;;;12.13;7.80;;;15.50;99.90;;;;;;4954485;28;20217;-74
2022/11/07 11:26:23;;;;;;;10.50;8.37;;;15.10;99.90;;;;;;4952670;28;20212;-73
2022/11/07 11:28:56;;;;;;;15.93;8.90;;;14.80;99.90;;;;;;4954309;28;20228;-73
2022/11/07 11:31:29;;;;;;;13.83;8.73;;;14.50;99.90;;;;;;4952733;28;20665;-73
2022/11/07 11:34:04;;;;;;;13.77;7.43;;;14.20;99.90;;;;;;4952883;28;20204;-74
2022/11/07 11:36:36;;;;;;;8.77;7.00;;;14.20;99.90;;;;;;4953109;28;21264;-72
2022/11/07 11:39:05;;;;;;;12.13;7.60;;;14.10;99.90;;;;;;4951496;29;20348;-74
2022/11/07 11:41:41;;;;;;;12.90;8.37;;;13.90;99.90;;;;;;4958125;28;20649;-73
2022/11/07 11:44:18;;;;;;;12.30;7.83;;;13.80;99.90;;;;;;4957539;29;20221;-74
2022/11/07 11:46:52;;;;;;;11.10;8.00;;;13.70;99.90;;;;;;4958183;28;20208;-73
2022/11/07 11:49:24;;;;;;;11.83;7.90;;;13.60;99.90;;;;;;4955218;29;20675;-75
2022/11/07 11:51:56;;;;;;;9.17;7.20;;;13.50;99.90;;;;;;4955919;28;20216;-72
2022/11/07 11:54:23;;;;;;;10.30;7.20;;;13.50;99.90;;;;;;4956383;28;20210;-73
2022/11/07 11:56:53;;;;;;;9.80;7.20;;;13.50;99.90;;;;;;4956927;29;20205;-73
2022/11/07 11:59:39;;;;;;;9.93;7.33;;;13.60;99.90;;;;;;4951123;28;20672;-74
2022/11/07 12:02:32;;;;;;;10.33;6.93;;;13.70;99.90;;;;;;4952280;29;20212;-73
2022/11/07 12:05:05;;;;;;;9.17;6.37;;;13.70;99.90;;;;;;4954206;28;20215;-71
2022/11/07 12:07:46;;;;;;;11.60;7.27;;;13.60;99.90;;;;;;4954932;28;20233;-72
2022/11/07 12:10:20;;;;;;;12.33;7.20;;;13.40;99.90;;;;;;4953361;29;20224;-73
2022/11/07 12:13:01;;;;;;;10.80;7.27;;;13.30;99.90;;;;;;4947621;28;20236;-71
2022/11/07 12:15:49;;;;;;;11.10;7.70;;;13.20;99.90;;;;;;4952220;29;20221;-73
2022/11/07 12:18:24;;;;;;;12.40;7.47;;;13.00;99.90;;;;;;4953544;29;20618;-72
2022/11/07 12:21:04;;;;;;;11.10;7.40;;;12.90;99.90;;;;;;4954222;28;20211;-73
2022/11/07 12:23:46;;;;;;;11.47;6.93;;;12.80;99.90;;;;;;4945402;29;20481;-73
2022/11/07 12:26:22;;;;;;;10.97;6.50;;;12.70;99.90;;;;;;4955796;29;20216;-72
2022/11/07 12:28:57;;;;;;;10.23;7.33;;;12.70;99.90;;;;;;4955453;28;20225;-76
2022/11/07 12:31:37;;;;;;;10.03;7.20;;;12.70;99.90;;;;;;4951535;28;20204;-71
2022/11/07 12:34:15;;;;;;;11.33;7.90;;;12.80;99.90;;;;;;4955126;28;20201;-72
2022/11/07 12:36:55;;;;;;;10.40;6.60;;;12.90;99.90;;;;;;4951314;28;20201;-72
2022/11/07 12:39:45;;;;;;;9.60;6.30;;;13.10;99.90;;;;;;4945840;29;20289;-71
2022/11/07 12:42:26;;;;;;;8.53;5.87;;;13.20;99.90;;;;;;4950795;29;20255;-74
2022/11/07 12:45:10;;;;;;;10.20;7.30;;;13.40;99.90;;;;;;4949726;28;20209;-73
2022/11/07 12:47:54;;;;;;;13.93;9.63;;;13.40;99.90;;;;;;4963827;28;20463;-74
2022/11/07 12:50:34;;;;;;;14.47;7.53;;;13.50;99.90;;;;;;4961357;29;20654;-75
2022/11/07 12:53:13;;;;;;;10.20;7.33;;;13.50;99.90;;;;;;4957197;29;20209;-74
2022/11/07 12:55:44;;;;;;;10.07;6.80;;;13.50;99.90;;;;;;4956345;28;20220;-74
2022/11/07 12:58:17;;;;;;;10.63;7.23;;;13.60;99.90;;;;;;4961639;28;20212;-75
2022/11/07 13:00:45;;;;;;;12.50;6.90;;;13.70;99.90;;;;;;4952446;28;20648;-74